createdAt,value
2024-05-09T00:00:29.778Z,0.00
2024-05-09T00:01:20.430Z,0.00
2024-05-09T00:02:20.381Z,0.00
2024-05-09T00:03:20.292Z,0.00
2024-05-09T00:04:20.252Z,0.00
2024-05-09T00:05:20.328Z,0.00
2024-05-09T00:06:20.203Z,0.00
2024-05-09T00:07:20.186Z,0.00
2024-05-09T00:08:20.215Z,0.00
2024-05-09T00:09:20.173Z,0.00
2024-05-09T00:10:28.806Z,0.00
2024-05-09T00:11:20.231Z,0.00
2024-05-09T00:12:20.234Z,0.00
2024-05-09T00:13:20.129Z,0.00
2024-05-09T00:14:20.151Z,0.00
2024-05-09T00:15:20.095Z,0.00
2024-05-09T00:16:20.091Z,0.00
2024-05-09T00:17:20.140Z,0.00
2024-05-09T00:18:20.253Z,0.00
2024-05-09T00:19:20.221Z,0.00
2024-05-09T00:20:24.616Z,0.00
2024-05-09T00:21:20.031Z,0.00
2024-05-09T00:22:20.027Z,0.00
2024-05-09T00:23:20.086Z,0.00
2024-05-09T00:24:19.984Z,0.00
2024-05-09T00:25:19.981Z,0.00
2024-05-09T00:26:20.011Z,0.00
2024-05-09T00:27:19.964Z,0.00
2024-05-09T00:28:19.948Z,0.00
2024-05-09T00:29:19.980Z,0.00
2024-05-09T00:30:27.961Z,0.00
2024-05-09T00:31:19.924Z,0.00
2024-05-09T00:32:20.025Z,0.00
2024-05-09T00:33:20.096Z,0.00
2024-05-09T00:34:19.988Z,0.00
2024-05-09T00:35:19.911Z,0.00
2024-05-09T00:36:19.850Z,0.00
2024-05-09T00:37:19.845Z,0.00
2024-05-09T00:38:19.879Z,0.00
2024-05-09T00:39:19.820Z,0.00
2024-05-09T00:40:30.696Z,0.00
2024-05-09T00:41:20.096Z,0.00
2024-05-09T00:42:19.790Z,0.00
2024-05-09T00:43:19.756Z,0.00
2024-05-09T00:44:19.856Z,0.00
2024-05-09T00:45:19.738Z,0.00
2024-05-09T00:46:19.738Z,0.00
2024-05-09T00:47:19.783Z,0.00
2024-05-09T00:48:21.467Z,0.00
2024-05-09T00:49:19.817Z,0.00
2024-05-09T00:50:25.949Z,0.00
2024-05-09T00:51:19.713Z,0.00
2024-05-09T00:52:19.657Z,0.00
2024-05-09T00:53:19.713Z,0.00
2024-05-09T00:54:19.629Z,0.00
2024-05-09T00:55:19.618Z,0.00
2024-05-09T00:56:19.646Z,0.00
2024-05-09T00:57:19.623Z,0.00
2024-05-09T00:58:19.604Z,0.00
2024-05-09T00:59:19.629Z,0.00
2024-05-09T01:00:27.138Z,0.00
2024-05-09T01:01:19.593Z,0.00
2024-05-09T01:02:19.627Z,0.00
2024-05-09T01:03:20.189Z,0.00
2024-05-09T01:04:19.562Z,0.00
2024-05-09T01:05:19.528Z,0.00
2024-05-09T01:06:19.509Z,0.00
2024-05-09T01:07:19.474Z,0.00
2024-05-09T01:08:19.544Z,0.00
2024-05-09T01:09:19.473Z,0.00
2024-05-09T01:10:27.599Z,0.00
2024-05-09T01:11:19.630Z,0.00
2024-05-09T01:12:19.563Z,0.00
2024-05-09T01:13:19.405Z,0.00
2024-05-09T01:14:19.481Z,0.00
2024-05-09T01:15:19.409Z,0.00
2024-05-09T01:16:19.392Z,0.00
2024-05-09T01:17:19.446Z,0.00
2024-05-09T01:18:19.567Z,0.00
2024-05-09T01:19:19.531Z,0.00
2024-05-09T01:20:23.056Z,0.00
2024-05-09T01:21:19.440Z,0.00
2024-05-09T01:22:19.309Z,0.00
2024-05-09T01:23:19.328Z,0.00
2024-05-09T01:24:19.301Z,0.00
2024-05-09T01:25:19.276Z,0.00
2024-05-09T01:26:19.336Z,0.00
2024-05-09T01:27:19.280Z,0.00
2024-05-09T01:28:19.250Z,0.00
2024-05-09T01:29:19.322Z,0.00
2024-05-09T01:30:24.338Z,0.00
2024-05-09T01:31:19.230Z,0.00
2024-05-09T01:32:19.334Z,0.00
2024-05-09T01:33:19.381Z,0.00
2024-05-09T01:34:19.246Z,0.00
2024-05-09T01:35:19.226Z,0.00
2024-05-09T01:36:19.141Z,0.00
2024-05-09T01:37:19.158Z,0.00
2024-05-09T01:38:19.186Z,0.00
2024-05-09T01:39:19.125Z,0.00
2024-05-09T01:40:25.297Z,0.00
2024-05-09T01:41:19.183Z,0.00
2024-05-09T01:42:19.081Z,0.00
2024-05-09T01:43:19.069Z,0.00
2024-05-09T01:44:19.145Z,0.00
2024-05-09T01:45:19.072Z,0.00
2024-05-09T01:46:19.033Z,0.00
2024-05-09T01:47:19.133Z,0.00
2024-05-09T01:48:19.176Z,0.00
2024-05-09T01:49:19.260Z,0.00
2024-05-09T01:50:28.835Z,0.00
2024-05-09T01:51:19.037Z,0.00
2024-05-09T01:52:18.978Z,0.00
2024-05-09T01:53:19.026Z,0.00
2024-05-09T01:54:18.979Z,0.00
2024-05-09T01:55:18.952Z,0.00
2024-05-09T01:56:19.011Z,0.00
2024-05-09T01:57:18.922Z,0.00
2024-05-09T01:58:18.904Z,0.00
2024-05-09T01:59:18.995Z,0.00
2024-05-09T02:00:30.025Z,0.00
2024-05-09T02:01:18.940Z,0.00
2024-05-09T02:02:19.148Z,0.00
2024-05-09T02:03:19.027Z,0.00
2024-05-09T02:04:19.094Z,0.00
2024-05-09T02:05:19.051Z,0.00
2024-05-09T02:06:18.854Z,0.00
2024-05-09T02:07:18.821Z,0.00
2024-05-09T02:08:19.383Z,0.00
2024-05-09T02:09:18.779Z,0.00
2024-05-09T02:10:26.018Z,0.00
2024-05-09T02:11:18.842Z,0.00
2024-05-09T02:12:19.025Z,0.00
2024-05-09T02:13:18.794Z,0.00
2024-05-09T02:14:18.789Z,0.00
2024-05-09T02:15:18.694Z,0.00
2024-05-09T02:16:18.715Z,0.00
2024-05-09T02:17:18.734Z,0.00
2024-05-09T02:18:18.860Z,0.00
2024-05-09T02:19:18.863Z,0.00
2024-05-09T02:20:27.169Z,0.00
2024-05-09T02:21:18.672Z,0.00
2024-05-09T02:22:18.628Z,0.00
2024-05-09T02:23:18.687Z,0.00
2024-05-09T02:24:18.595Z,0.00
2024-05-09T02:25:18.614Z,0.00
2024-05-09T02:26:18.704Z,0.00
2024-05-09T02:27:18.593Z,0.00
2024-05-09T02:28:18.571Z,0.00
2024-05-09T02:29:18.589Z,0.00
2024-05-09T02:30:25.992Z,0.00
2024-05-09T02:31:18.519Z,0.00
2024-05-09T02:32:18.636Z,0.00
2024-05-09T02:33:18.682Z,0.00
2024-05-09T02:34:18.595Z,0.00
2024-05-09T02:35:18.609Z,0.00
2024-05-09T02:36:18.479Z,0.00
2024-05-09T02:37:18.460Z,0.00
2024-05-09T02:38:18.490Z,0.00
2024-05-09T02:39:18.453Z,0.00
2024-05-09T02:40:25.417Z,0.00
2024-05-09T02:41:18.489Z,0.00
2024-05-09T02:42:18.411Z,0.00
2024-05-09T02:43:18.397Z,0.00
2024-05-09T02:44:18.420Z,0.00
2024-05-09T02:45:18.360Z,0.00
2024-05-09T02:46:18.363Z,0.00
2024-05-09T02:47:18.454Z,0.00
2024-05-09T02:48:18.494Z,0.00
2024-05-09T02:49:18.519Z,0.00
2024-05-09T02:50:26.571Z,0.00
2024-05-09T02:51:18.330Z,0.00
2024-05-09T02:52:18.287Z,0.00
2024-05-09T02:53:18.369Z,0.00
2024-05-09T02:54:18.268Z,0.00
2024-05-09T02:55:18.250Z,0.00
2024-05-09T02:56:18.260Z,0.00
2024-05-09T02:57:18.219Z,0.00
2024-05-09T02:58:18.229Z,0.00
2024-05-09T02:59:18.283Z,0.00
2024-05-09T03:00:22.926Z,0.00
2024-05-09T03:01:18.220Z,0.00
2024-05-09T03:02:18.280Z,0.00
2024-05-09T03:03:18.425Z,0.00
2024-05-09T03:04:18.203Z,0.00
2024-05-09T03:05:18.190Z,0.00
2024-05-09T03:06:18.137Z,0.00
2024-05-09T03:07:20.224Z,0.00
2024-05-09T03:08:18.308Z,0.00
2024-05-09T03:09:18.099Z,0.00
2024-05-09T03:10:22.563Z,0.00
2024-05-09T03:11:18.143Z,4.00
2024-05-09T03:12:18.111Z,4.00
2024-05-09T03:13:18.050Z,4.00
2024-05-09T03:14:18.144Z,0.00
2024-05-09T03:15:18.031Z,4.00
2024-05-09T03:16:18.025Z,4.00
2024-05-09T03:17:18.100Z,4.00
2024-05-09T03:18:18.067Z,4.00
2024-05-09T03:19:18.239Z,4.00
2024-05-09T03:20:23.740Z,8.00
2024-05-09T03:21:17.980Z,8.00
2024-05-09T03:22:17.960Z,8.00
2024-05-09T03:23:17.974Z,8.00
2024-05-09T03:24:17.936Z,12.00
2024-05-09T03:25:17.918Z,12.00
2024-05-09T03:26:17.930Z,16.00
2024-05-09T03:27:17.914Z,16.00
2024-05-09T03:28:17.886Z,16.00
2024-05-09T03:29:17.913Z,20.00
2024-05-09T03:30:29.282Z,24.00
2024-05-09T03:31:17.844Z,28.00
2024-05-09T03:32:17.880Z,32.00
2024-05-09T03:33:19.764Z,36.00
2024-05-09T03:34:17.836Z,36.00
2024-05-09T03:35:17.891Z,44.00
2024-05-09T03:36:17.814Z,48.00
2024-05-09T03:37:17.796Z,52.00
2024-05-09T03:38:18.035Z,60.00
2024-05-09T03:39:17.769Z,64.00
2024-05-09T03:40:23.439Z,68.00
2024-05-09T03:41:17.743Z,76.00
2024-05-09T03:42:17.722Z,84.00
2024-05-09T03:43:17.725Z,92.00
2024-05-09T03:44:17.736Z,104.00
2024-05-09T03:45:17.709Z,108.00
2024-05-09T03:46:17.683Z,116.00
2024-05-09T03:47:17.821Z,132.00
2024-05-09T03:48:17.989Z,140.00
2024-05-09T03:49:17.865Z,152.00
2024-05-09T03:50:22.894Z,164.00
2024-05-09T03:51:17.667Z,176.00
2024-05-09T03:52:17.622Z,188.00
2024-05-09T03:53:17.666Z,204.00
2024-05-09T03:54:17.571Z,216.00
2024-05-09T03:55:17.581Z,232.00
2024-05-09T03:56:17.593Z,248.00
2024-05-09T03:57:17.554Z,264.00
2024-05-09T03:58:17.537Z,280.00
2024-05-09T03:59:17.594Z,296.00
2024-05-09T04:00:22.745Z,312.00
2024-05-09T04:01:17.563Z,332.00
2024-05-09T04:02:17.575Z,348.00
2024-05-09T04:03:17.599Z,364.00
2024-05-09T04:04:17.510Z,388.00
2024-05-09T04:05:17.564Z,408.00
2024-05-09T04:06:17.458Z,428.00
2024-05-09T04:07:17.474Z,452.00
2024-05-09T04:08:17.482Z,472.00
2024-05-09T04:09:17.425Z,488.00
2024-05-09T04:10:27.302Z,512.00
2024-05-09T04:11:17.586Z,528.00
2024-05-09T04:12:17.492Z,548.00
2024-05-09T04:13:17.377Z,572.00
2024-05-09T04:14:17.409Z,588.00
2024-05-09T04:15:17.365Z,608.00
2024-05-09T04:16:17.337Z,632.00
2024-05-09T04:17:17.403Z,652.00
2024-05-09T04:18:17.382Z,676.00
2024-05-09T04:19:17.611Z,700.00
2024-05-09T04:20:28.711Z,724.00
2024-05-09T04:21:17.334Z,748.00
2024-05-09T04:22:17.260Z,772.00
2024-05-09T04:23:17.309Z,804.00
2024-05-09T04:24:17.245Z,832.00
2024-05-09T04:25:17.236Z,860.00
2024-05-09T04:26:17.249Z,888.00
2024-05-09T04:27:17.212Z,920.00
2024-05-09T04:28:17.198Z,952.00
2024-05-09T04:29:17.265Z,976.00
2024-05-09T04:30:25.560Z,1000.00
2024-05-09T04:31:17.179Z,1028.00
2024-05-09T04:32:17.326Z,1056.00
2024-05-09T04:33:17.251Z,1080.00
2024-05-09T04:34:17.454Z,1108.00
2024-05-09T04:35:17.147Z,1140.00
2024-05-09T04:36:17.123Z,1168.00
2024-05-09T04:37:17.107Z,1220.00
2024-05-09T04:38:17.210Z,1248.00
2024-05-09T04:39:17.081Z,1252.00
2024-05-09T04:40:24.356Z,1280.00
2024-05-09T04:41:17.097Z,1304.00
2024-05-09T04:42:17.205Z,1336.00
2024-05-09T04:43:17.075Z,1356.00
2024-05-09T04:44:17.082Z,1380.00
2024-05-09T04:45:17.000Z,1400.00
2024-05-09T04:46:17.023Z,1420.00
2024-05-09T04:47:17.107Z,1444.00
2024-05-09T04:48:17.312Z,1464.00
2024-05-09T04:49:17.072Z,1484.00
2024-05-09T04:50:24.681Z,1512.00
2024-05-09T04:51:16.977Z,1532.00
2024-05-09T04:52:16.915Z,1552.00
2024-05-09T04:53:17.208Z,1572.00
2024-05-09T04:54:26.412Z,1600.00
2024-05-09T04:55:16.911Z,1632.00
2024-05-09T04:56:16.978Z,1660.00
2024-05-09T04:57:16.882Z,1684.00
2024-05-09T04:58:16.872Z,1712.00
2024-05-09T04:59:16.966Z,1744.00
2024-05-09T05:00:21.908Z,1768.00
2024-05-09T05:01:16.842Z,1796.00
2024-05-09T05:02:17.016Z,1816.00
2024-05-09T05:03:17.349Z,1840.00
2024-05-09T05:04:17.001Z,1856.00
2024-05-09T05:05:16.989Z,1876.00
2024-05-09T05:06:16.765Z,1892.00
2024-05-09T05:07:16.757Z,1912.00
2024-05-09T05:08:17.969Z,1936.00
2024-05-09T05:09:16.744Z,1956.00
2024-05-09T05:10:21.621Z,1972.00
2024-05-09T05:11:16.912Z,1996.00
2024-05-09T05:12:16.797Z,2020.00
2024-05-09T05:13:18.151Z,2040.00
2024-05-09T05:14:16.767Z,2060.00
2024-05-09T05:15:16.676Z,2076.00
2024-05-09T05:16:16.712Z,2088.00
2024-05-09T05:17:16.670Z,2108.00
2024-05-09T05:18:16.959Z,2128.00
2024-05-09T05:19:17.723Z,2156.00
2024-05-09T05:20:24.475Z,2180.00
2024-05-09T05:21:16.659Z,2208.00
2024-05-09T05:22:16.594Z,2232.00
2024-05-09T05:23:16.936Z,2260.00
2024-05-09T05:24:16.564Z,2284.00
2024-05-09T05:25:16.555Z,2300.00
2024-05-09T05:26:16.605Z,2324.00
2024-05-09T05:27:16.543Z,2352.00
2024-05-09T05:28:16.551Z,2368.00
2024-05-09T05:29:20.195Z,2388.00
2024-05-09T05:30:21.321Z,2400.00
2024-05-09T05:31:16.520Z,2420.00
2024-05-09T05:32:16.688Z,2436.00
2024-05-09T05:33:16.582Z,2460.00
2024-05-09T05:34:16.467Z,2480.00
2024-05-09T05:35:16.525Z,2492.00
2024-05-09T05:36:16.447Z,2512.00
2024-05-09T05:37:16.410Z,2520.00
2024-05-09T05:38:16.539Z,2524.00
2024-05-09T05:39:16.395Z,2460.00
2024-05-09T05:40:25.384Z,2416.00
2024-05-09T05:41:16.546Z,2412.00
2024-05-09T05:42:16.352Z,2456.00
2024-05-09T05:43:16.358Z,2536.00
2024-05-09T05:44:16.369Z,2556.00
2024-05-09T05:45:16.352Z,2552.00
2024-05-09T05:46:16.387Z,2548.00
2024-05-09T05:47:16.415Z,2600.00
2024-05-09T05:48:17.294Z,2660.00
2024-05-09T05:49:16.451Z,2688.00
2024-05-09T05:50:24.608Z,2720.00
2024-05-09T05:51:16.455Z,2740.00
2024-05-09T05:52:16.261Z,2756.00
2024-05-09T05:53:16.387Z,2760.00
2024-05-09T05:54:16.228Z,2780.00
2024-05-09T05:55:16.241Z,2808.00
2024-05-09T05:56:16.233Z,2840.00
2024-05-09T05:57:16.212Z,2856.00
2024-05-09T05:58:16.166Z,2876.00
2024-05-09T05:59:16.181Z,2892.00
2024-05-09T06:00:25.997Z,2908.00
2024-05-09T06:01:16.183Z,2908.00
2024-05-09T06:02:16.298Z,2920.00
2024-05-09T06:03:16.355Z,2956.00
2024-05-09T06:04:16.135Z,2984.00
2024-05-09T06:05:16.139Z,3000.00
2024-05-09T06:06:16.081Z,3024.00
2024-05-09T06:07:16.078Z,3040.00
2024-05-09T06:08:16.128Z,3052.00
2024-05-09T06:09:16.074Z,3068.00
2024-05-09T06:10:21.473Z,3084.00
2024-05-09T06:11:16.120Z,3092.00
2024-05-09T06:12:16.140Z,3100.00
2024-05-09T06:13:16.011Z,3088.00
2024-05-09T06:14:16.054Z,3112.00
2024-05-09T06:15:15.991Z,3140.00
2024-05-09T06:16:15.959Z,3160.00
2024-05-09T06:17:16.084Z,3176.00
2024-05-09T06:18:16.134Z,3180.00
2024-05-09T06:19:16.053Z,3188.00
2024-05-09T06:20:20.796Z,3204.00
2024-05-09T06:21:16.085Z,3216.00
2024-05-09T06:22:15.891Z,3236.00
2024-05-09T06:23:15.947Z,3256.00
2024-05-09T06:24:15.896Z,3272.00
2024-05-09T06:25:15.871Z,3288.00
2024-05-09T06:26:15.908Z,3300.00
2024-05-09T06:27:15.843Z,3304.00
2024-05-09T06:28:15.824Z,3316.00
2024-05-09T06:29:15.861Z,3328.00
2024-05-09T06:30:25.680Z,3340.00
2024-05-09T06:31:15.802Z,3352.00
2024-05-09T06:32:15.884Z,3376.00
2024-05-09T06:33:16.753Z,3392.00
2024-05-09T06:34:15.963Z,3396.00
2024-05-09T06:35:15.797Z,3408.00
2024-05-09T06:36:15.739Z,3424.00
2024-05-09T06:37:15.752Z,3436.00
2024-05-09T06:38:15.773Z,3464.00
2024-05-09T06:39:15.712Z,3492.00
2024-05-09T06:40:21.205Z,3516.00
2024-05-09T06:41:15.785Z,3536.00
2024-05-09T06:42:15.690Z,3544.00
2024-05-09T06:43:17.968Z,3556.00
2024-05-09T06:44:15.703Z,3572.00
2024-05-09T06:45:15.688Z,3580.00
2024-05-09T06:46:15.647Z,3600.00
2024-05-09T06:47:15.760Z,3608.00
2024-05-09T06:48:15.765Z,3620.00
2024-05-09T06:49:15.884Z,3612.00
2024-05-09T06:50:23.378Z,3612.00
2024-05-09T06:51:15.713Z,3620.00
2024-05-09T06:52:15.574Z,3644.00
2024-05-09T06:53:15.709Z,3656.00
2024-05-09T06:54:15.552Z,3664.00
2024-05-09T06:55:15.559Z,3664.00
2024-05-09T06:56:15.577Z,3688.00
2024-05-09T06:57:15.526Z,3692.00
2024-05-09T06:58:15.530Z,3696.00
2024-05-09T06:59:15.585Z,3708.00
2024-05-09T07:00:22.866Z,3748.00
2024-05-09T07:01:15.489Z,3764.00
2024-05-09T07:02:15.605Z,3728.00
2024-05-09T07:03:17.617Z,3768.00
2024-05-09T07:04:15.708Z,3760.00
2024-05-09T07:05:15.510Z,3776.00
2024-05-09T07:06:15.472Z,3792.00
2024-05-09T07:07:15.394Z,3828.00
2024-05-09T07:08:15.418Z,3844.00
2024-05-09T07:09:15.384Z,3880.00
2024-05-09T07:10:22.018Z,3888.00
2024-05-09T07:11:15.474Z,3924.00
2024-05-09T07:12:15.535Z,3900.00
2024-05-09T07:13:15.781Z,3908.00
2024-05-09T07:14:15.334Z,3932.00
2024-05-09T07:15:15.303Z,3952.00
2024-05-09T07:16:15.316Z,3964.00
2024-05-09T07:17:15.334Z,3980.00
2024-05-09T07:18:16.681Z,3988.00
2024-05-09T07:19:15.563Z,4012.00
2024-05-09T07:20:23.157Z,4020.00
2024-05-09T07:21:15.467Z,4048.00
2024-05-09T07:22:15.244Z,4076.00
2024-05-09T07:23:15.545Z,4104.00
2024-05-09T07:24:15.195Z,4112.00
2024-05-09T07:25:15.191Z,4108.00
2024-05-09T07:26:15.259Z,4128.00
2024-05-09T07:27:15.177Z,4120.00
2024-05-09T07:28:15.187Z,4108.00
2024-05-09T07:29:15.194Z,4132.00
2024-05-09T07:30:22.920Z,4152.00
2024-05-09T07:31:15.115Z,4160.00
2024-05-09T07:32:15.154Z,4164.00
2024-05-09T07:33:15.367Z,4176.00
2024-05-09T07:34:15.268Z,4212.00
2024-05-09T07:35:15.096Z,4216.00
2024-05-09T07:36:15.097Z,4232.00
2024-05-09T07:37:15.084Z,4244.00
2024-05-09T07:38:15.155Z,4260.00
2024-05-09T07:39:15.040Z,4252.00
2024-05-09T07:40:24.496Z,4288.00
2024-05-09T07:41:15.103Z,4308.00
2024-05-09T07:42:14.991Z,4332.00
2024-05-09T07:43:15.221Z,4340.00
2024-05-09T07:44:15.028Z,4352.00
2024-05-09T07:45:30.098Z,4368.00
2024-05-09T07:48:28.870Z,4404.00
2024-05-09T07:52:22.599Z,4416.00
2024-05-09T07:53:42.210Z,4448.00
2024-05-09T07:53:53.520Z,4496.00
2024-05-09T07:54:45.215Z,4508.00
2024-05-09T07:55:45.175Z,4524.00
2024-05-09T07:56:45.138Z,4536.00
2024-05-09T07:57:45.045Z,4528.00
2024-05-09T07:58:45.025Z,4476.00
2024-05-09T07:59:44.994Z,4528.00
2024-05-09T08:00:45.139Z,4460.00
2024-05-09T08:01:45.142Z,4604.00
2024-05-09T08:02:45.004Z,4600.00
2024-05-09T08:03:45.298Z,4604.00
2024-05-09T08:04:45.016Z,4640.00
2024-05-09T08:05:44.962Z,4664.00
2024-05-09T08:06:44.954Z,4668.00
2024-05-09T08:07:44.930Z,4684.00
2024-05-09T08:08:44.887Z,4700.00
2024-05-09T08:09:44.938Z,4724.00
2024-05-09T08:10:44.923Z,4736.00
2024-05-09T08:11:44.944Z,4740.00
2024-05-09T08:12:44.890Z,4760.00
2024-05-09T08:13:44.830Z,4776.00
2024-05-09T08:14:44.822Z,4792.00
2024-05-09T08:15:45.047Z,4804.00
2024-05-09T08:16:44.799Z,4832.00
2024-05-09T08:17:44.889Z,4836.00
2024-05-09T08:18:44.879Z,4852.00
2024-05-09T08:19:44.808Z,4860.00
2024-05-09T08:20:44.747Z,4856.00
2024-05-09T08:21:45.752Z,4876.00
2024-05-09T08:22:44.729Z,4868.00
2024-05-09T08:23:44.717Z,4788.00
2024-05-09T08:24:44.723Z,4820.00
2024-05-09T08:25:44.689Z,4836.00
2024-05-09T08:26:44.694Z,4844.00
2024-05-09T08:27:44.740Z,4844.00
2024-05-09T08:28:44.654Z,4844.00
2024-05-09T08:29:44.719Z,4868.00
2024-05-09T08:30:44.947Z,4888.00
2024-05-09T08:31:44.749Z,4896.00
2024-05-09T08:32:44.728Z,4920.00
2024-05-09T08:33:44.780Z,4932.00
2024-05-09T08:34:44.711Z,4940.00
2024-05-09T08:35:44.590Z,4944.00
2024-05-09T08:36:44.629Z,4960.00
2024-05-09T08:37:44.618Z,4976.00
2024-05-09T08:38:44.560Z,4980.00
2024-05-09T08:39:44.581Z,4988.00
2024-05-09T08:40:44.753Z,5008.00
2024-05-09T08:41:44.518Z,5024.00
2024-05-09T08:42:44.928Z,5032.00
2024-05-09T08:43:44.499Z,5036.00
2024-05-09T08:44:44.503Z,5024.00
2024-05-09T08:45:45.447Z,5000.00
2024-05-09T08:46:44.448Z,4824.00
2024-05-09T08:47:44.589Z,4428.00
2024-05-09T08:48:44.728Z,4528.00
2024-05-09T08:49:44.478Z,4600.00
2024-05-09T08:50:45.546Z,5064.00
2024-05-09T08:51:44.473Z,5140.00
2024-05-09T08:52:44.376Z,5168.00
2024-05-09T08:53:44.391Z,5180.00
2024-05-09T08:54:44.426Z,5196.00
2024-05-09T08:55:44.760Z,5196.00
2024-05-09T08:56:44.358Z,5200.00
2024-05-09T08:57:44.441Z,5200.00
2024-05-09T08:58:44.314Z,5220.00
2024-05-09T08:59:44.305Z,5220.00
2024-05-09T09:00:45.287Z,5220.00
2024-05-09T09:01:44.514Z,5104.00
2024-05-09T09:02:44.721Z,5224.00
2024-05-09T09:03:44.450Z,5236.00
2024-05-09T09:04:44.447Z,5240.00
2024-05-09T09:05:44.282Z,5248.00
2024-05-09T09:06:44.480Z,5248.00
2024-05-09T09:07:44.219Z,5260.00
2024-05-09T09:08:44.197Z,5264.00
2024-05-09T09:09:44.363Z,5272.00
2024-05-09T09:10:44.282Z,5284.00
2024-05-09T09:11:44.272Z,5300.00
2024-05-09T09:12:44.321Z,5308.00
2024-05-09T09:13:44.153Z,5320.00
2024-05-09T09:14:44.135Z,5332.00
2024-05-09T09:15:44.185Z,5336.00
2024-05-09T09:16:44.104Z,5340.00
2024-05-09T09:17:44.217Z,5348.00
2024-05-09T09:18:44.337Z,5336.00
2024-05-09T09:19:44.117Z,5356.00
2024-05-09T09:20:44.269Z,5356.00
2024-05-09T09:21:44.120Z,5368.00
2024-05-09T09:22:44.061Z,5376.00
2024-05-09T09:23:44.061Z,5380.00
2024-05-09T09:24:44.069Z,5388.00
2024-05-09T09:25:44.014Z,5384.00
2024-05-09T09:26:43.999Z,5396.00
2024-05-09T09:27:44.049Z,5384.00
2024-05-09T09:28:43.966Z,5384.00
2024-05-09T09:29:43.985Z,5388.00
2024-05-09T09:30:44.049Z,5400.00
2024-05-09T09:31:43.981Z,5400.00
2024-05-09T09:32:44.014Z,5412.00
2024-05-09T09:33:44.184Z,5416.00
2024-05-09T09:34:43.999Z,5416.00
2024-05-09T09:35:43.940Z,5412.00
2024-05-09T09:36:44.019Z,5420.00
2024-05-09T09:37:43.876Z,5432.00
2024-05-09T09:38:43.916Z,5424.00
2024-05-09T09:39:43.916Z,5428.00
2024-05-09T09:40:48.298Z,5440.00
2024-05-09T09:41:43.893Z,5448.00
2024-05-09T09:42:43.855Z,5464.00
2024-05-09T09:43:43.813Z,5480.00
2024-05-09T09:44:47.762Z,5484.00
2024-05-09T09:45:43.989Z,5492.00
2024-05-09T09:46:43.803Z,5496.00
2024-05-09T09:47:43.859Z,5500.00
2024-05-09T09:48:43.868Z,5508.00
2024-05-09T09:49:43.812Z,5504.00
2024-05-09T09:50:43.730Z,5512.00
2024-05-09T09:51:43.899Z,5512.00
2024-05-09T09:52:43.725Z,5512.00
2024-05-09T09:53:43.689Z,5512.00
2024-05-09T09:54:43.704Z,5508.00
2024-05-09T09:55:43.667Z,5504.00
2024-05-09T09:56:43.679Z,5496.00
2024-05-09T09:57:43.804Z,5504.00
2024-05-09T09:58:43.649Z,5500.00
2024-05-09T09:59:43.645Z,5504.00
2024-05-09T10:00:43.932Z,5488.00
2024-05-09T10:01:43.734Z,5468.00
2024-05-09T10:02:43.699Z,5448.00
2024-05-09T10:03:43.725Z,5436.00
2024-05-09T10:04:43.737Z,5468.00
2024-05-09T10:05:46.314Z,5496.00
2024-05-09T10:06:43.598Z,5500.00
2024-05-09T10:07:43.555Z,5568.00
2024-05-09T10:08:43.522Z,5592.00
2024-05-09T10:09:43.583Z,5624.00
2024-05-09T10:10:43.884Z,5636.00
2024-05-09T10:11:49.109Z,5640.00
2024-05-09T10:12:43.525Z,5660.00
2024-05-09T10:13:43.504Z,5696.00
2024-05-09T10:14:43.455Z,5736.00
2024-05-09T10:15:43.496Z,5784.00
2024-05-09T10:16:43.451Z,5824.00
2024-05-09T10:17:43.540Z,5840.00
2024-05-09T10:18:43.786Z,5868.00
2024-05-09T10:19:43.439Z,5884.00
2024-05-09T10:20:43.400Z,5936.00
2024-05-09T10:21:43.495Z,6036.00
2024-05-09T10:22:43.386Z,6132.00
2024-05-09T10:23:43.371Z,6168.00
2024-05-09T10:24:43.415Z,6232.00
2024-05-09T10:25:43.362Z,6312.00
2024-05-09T10:26:43.362Z,4768.00
2024-05-09T10:27:43.334Z,4324.00
2024-05-09T10:28:43.356Z,5836.00
2024-05-09T10:29:43.332Z,6716.00
2024-05-09T10:30:43.456Z,6728.00
2024-05-09T10:31:43.487Z,6720.00
2024-05-09T10:32:43.442Z,5204.00
2024-05-09T10:33:43.399Z,6332.00
2024-05-09T10:34:43.422Z,5860.00
2024-05-09T10:35:43.224Z,6624.00
2024-05-09T10:36:43.354Z,6548.00
2024-05-09T10:37:43.218Z,6584.00
2024-05-09T10:38:43.319Z,6680.00
2024-05-09T10:39:43.307Z,6732.00
2024-05-09T10:40:43.295Z,6688.00
2024-05-09T10:41:43.166Z,6576.00
2024-05-09T10:42:43.224Z,6536.00
2024-05-09T10:43:43.137Z,6580.00
2024-05-09T10:44:43.119Z,6688.00
2024-05-09T10:45:43.167Z,6868.00
2024-05-09T10:46:43.126Z,7072.00
2024-05-09T10:47:43.286Z,7168.00
2024-05-09T10:48:43.355Z,7260.00
2024-05-09T10:49:43.141Z,7392.00
2024-05-09T10:50:43.089Z,7596.00
2024-05-09T10:51:43.135Z,7724.00
2024-05-09T10:52:43.066Z,7812.00
2024-05-09T10:53:43.154Z,7808.00
2024-05-09T10:54:43.075Z,7772.00
2024-05-09T10:55:43.019Z,7700.00
2024-05-09T10:56:43.062Z,7568.00
2024-05-09T10:57:43.061Z,6788.00
2024-05-09T10:58:43.081Z,7560.00
2024-05-09T10:59:43.000Z,6688.00
2024-05-09T11:00:43.116Z,4964.00
2024-05-09T11:01:43.114Z,4732.00
2024-05-09T11:02:43.387Z,4488.00
2024-05-09T11:03:43.232Z,4356.00
2024-05-09T11:04:43.029Z,4260.00
2024-05-09T11:05:43.254Z,4228.00
2024-05-09T11:06:42.964Z,4304.00
2024-05-09T11:07:42.924Z,4416.00
2024-05-09T11:08:42.904Z,4512.00
2024-05-09T11:09:42.988Z,4628.00
2024-05-09T11:10:43.038Z,4824.00
2024-05-09T11:11:42.864Z,6608.00
2024-05-09T11:12:42.896Z,7076.00
2024-05-09T11:13:42.847Z,7048.00
2024-05-09T11:14:42.819Z,7124.00
2024-05-09T11:15:42.921Z,7196.00
2024-05-09T11:16:42.812Z,7272.00
2024-05-09T11:17:43.644Z,7196.00
2024-05-09T11:18:42.932Z,6832.00
2024-05-09T11:19:42.842Z,4832.00
2024-05-09T11:20:42.995Z,4740.00
2024-05-09T11:21:43.585Z,4376.00
2024-05-09T11:22:42.733Z,4292.00
2024-05-09T11:23:43.115Z,4312.00
2024-05-09T11:24:42.746Z,4352.00
2024-05-09T11:25:42.693Z,4384.00
2024-05-09T11:26:42.681Z,4376.00
2024-05-09T11:27:43.641Z,4412.00
2024-05-09T11:28:42.639Z,4576.00
2024-05-09T11:29:43.137Z,6616.00
2024-05-09T11:30:42.694Z,7100.00
2024-05-09T11:31:42.700Z,7352.00
2024-05-09T11:32:42.744Z,7396.00
2024-05-09T11:33:42.687Z,7344.00
2024-05-09T11:34:42.697Z,7292.00
2024-05-09T11:35:42.582Z,7328.00
2024-05-09T11:36:42.716Z,7308.00
2024-05-09T11:37:42.559Z,7296.00
2024-05-09T11:38:42.513Z,7328.00
2024-05-09T11:39:42.626Z,7340.00
2024-05-09T11:40:42.635Z,7320.00
2024-05-09T11:41:42.496Z,7156.00
2024-05-09T11:42:42.563Z,7044.00
2024-05-09T11:43:42.485Z,6952.00
2024-05-09T11:44:42.453Z,6876.00
2024-05-09T11:45:42.580Z,6744.00
2024-05-09T11:46:42.433Z,6728.00
2024-05-09T11:47:42.552Z,6892.00
2024-05-09T11:48:42.608Z,6976.00
2024-05-09T11:49:42.557Z,7068.00
2024-05-09T11:50:42.453Z,7136.00
2024-05-09T11:51:42.485Z,7188.00
2024-05-09T11:52:42.376Z,7272.00
2024-05-09T11:53:42.367Z,7396.00
2024-05-09T11:54:42.363Z,7452.00
2024-05-09T11:55:42.335Z,7356.00
2024-05-09T11:56:42.338Z,7268.00
2024-05-09T11:57:42.382Z,7176.00
2024-05-09T11:58:42.292Z,5352.00
2024-05-09T11:59:42.299Z,7060.00
2024-05-09T12:00:42.390Z,4720.00
2024-05-09T12:01:42.407Z,4576.00
2024-05-09T12:02:42.262Z,4604.00
2024-05-09T12:03:42.387Z,4788.00
2024-05-09T12:04:42.535Z,5356.00
2024-05-09T12:05:42.503Z,4876.00
2024-05-09T12:06:42.286Z,4864.00
2024-05-09T12:07:42.207Z,4824.00
2024-05-09T12:08:42.219Z,4984.00
2024-05-09T12:09:42.193Z,5148.00
2024-05-09T12:10:42.422Z,5192.00
2024-05-09T12:11:42.152Z,7348.00
2024-05-09T12:12:42.183Z,7192.00
2024-05-09T12:13:42.134Z,7084.00
2024-05-09T12:14:42.130Z,7112.00
2024-05-09T12:15:42.137Z,7060.00
2024-05-09T12:16:42.200Z,7100.00
2024-05-09T12:17:42.166Z,7200.00
2024-05-09T12:18:42.135Z,6804.00
2024-05-09T12:19:42.131Z,7324.00
2024-05-09T12:20:42.057Z,7504.00
2024-05-09T12:21:42.087Z,7784.00
2024-05-09T12:22:42.065Z,7868.00
2024-05-09T12:23:42.054Z,8036.00
2024-05-09T12:24:42.089Z,8076.00
2024-05-09T12:25:42.004Z,8112.00
2024-05-09T12:26:42.210Z,8092.00
2024-05-09T12:27:42.008Z,7916.00
2024-05-09T12:28:42.013Z,7700.00
2024-05-09T12:29:41.958Z,7680.00
2024-05-09T12:30:42.157Z,7608.00